sensor_id;sensor_type;location;lat;lon;timestamp;temperature;humidity
17994;DHT22;9122;48.406;9.984;2023-07-08T00:02:19;23.20;56.80
17994;DHT22;9122;48.406;9.984;2023-07-08T00:05:05;23.10;56.60
17994;DHT22;9122;48.406;9.984;2023-07-08T00:07:50;23.10;56.70
17994;DHT22;9122;48.406;9.984;2023-07-08T00:10:34;23.00;56.50
17994;DHT22;9122;48.406;9.984;2023-07-08T00:13:18;23.00;56.60
17994;DHT22;9122;48.406;9.984;2023-07-08T00:16:03;22.90;56.50
17994;DHT22;9122;48.406;9.984;2023-07-08T00:18:47;22.90;56.70
17994;DHT22;9122;48.406;9.984;2023-07-08T00:21:34;22.80;56.80
17994;DHT22;9122;48.406;9.984;2023-07-08T00:24:18;22.80;57.10
17994;DHT22;9122;48.406;9.984;2023-07-08T00:27:03;22.80;57.30
17994;DHT22;9122;48.406;9.984;2023-07-08T00:29:48;22.70;57.20
17994;DHT22;9122;48.406;9.984;2023-07-08T00:32:32;22.70;57.40
17994;DHT22;9122;48.406;9.984;2023-07-08T00:35:16;22.60;57.60
17994;DHT22;9122;48.406;9.984;2023-07-08T00:38:01;22.60;57.90
17994;DHT22;9122;48.406;9.984;2023-07-08T00:40:52;22.50;58.00
17994;DHT22;9122;48.406;9.984;2023-07-08T00:55:07;22.30;58.20
17994;DHT22;9122;48.406;9.984;2023-07-08T00:57:54;22.30;58.20
17994;DHT22;9122;48.406;9.984;2023-07-08T01:00:38;22.20;58.50
17994;DHT22;9122;48.406;9.984;2023-07-08T01:03:23;22.20;58.50
17994;DHT22;9122;48.406;9.984;2023-07-08T01:06:08;22.10;58.60
17994;DHT22;9122;48.406;9.984;2023-07-08T01:08:53;22.10;58.70
17994;DHT22;9122;48.406;9.984;2023-07-08T01:11:39;22.10;58.40
17994;DHT22;9122;48.406;9.984;2023-07-08T01:14:26;22.00;58.50
17994;DHT22;9122;48.406;9.984;2023-07-08T01:17:12;22.00;58.30
17994;DHT22;9122;48.406;9.984;2023-07-08T01:20:01;21.90;58.40
17994;DHT22;9122;48.406;9.984;2023-07-08T01:22:57;21.90;58.30
17994;DHT22;9122;48.406;9.984;2023-07-08T01:25:43;21.90;58.40
17994;DHT22;9122;48.406;9.984;2023-07-08T01:28:29;21.80;58.50
17994;DHT22;9122;48.406;9.984;2023-07-08T01:31:13;21.80;58.40
17994;DHT22;9122;48.406;9.984;2023-07-08T01:33:58;21.80;58.20
17994;DHT22;9122;48.406;9.984;2023-07-08T01:36:55;21.70;58.30
17994;DHT22;9122;48.406;9.984;2023-07-08T01:39:40;21.70;58.60
17994;DHT22;9122;48.406;9.984;2023-07-08T01:42:24;21.60;58.90
17994;DHT22;9122;48.406;9.984;2023-07-08T01:45:17;21.60;59.10
17994;DHT22;9122;48.406;9.984;2023-07-08T01:48:14;21.60;59.00
17994;DHT22;9122;48.406;9.984;2023-07-08T01:51:03;21.50;59.10
17994;DHT22;9122;48.406;9.984;2023-07-08T01:53:50;21.50;59.00
17994;DHT22;9122;48.406;9.984;2023-07-08T01:56:35;21.50;58.90
17994;DHT22;9122;48.406;9.984;2023-07-08T01:59:19;21.50;59.00
17994;DHT22;9122;48.406;9.984;2023-07-08T02:02:03;21.40;59.20
17994;DHT22;9122;48.406;9.984;2023-07-08T02:04:48;21.40;59.40
17994;DHT22;9122;48.406;9.984;2023-07-08T02:07:32;21.40;59.40
17994;DHT22;9122;48.406;9.984;2023-07-08T02:10:17;21.40;59.40
17994;DHT22;9122;48.406;9.984;2023-07-08T02:13:01;21.30;59.30
17994;DHT22;9122;48.406;9.984;2023-07-08T02:15:45;21.30;59.90
17994;DHT22;9122;48.406;9.984;2023-07-08T02:18:29;21.30;62.10
17994;DHT22;9122;48.406;9.984;2023-07-08T02:21:16;21.30;63.20
17994;DHT22;9122;48.406;9.984;2023-07-08T02:24:02;21.30;63.50
17994;DHT22;9122;48.406;9.984;2023-07-08T02:26:46;21.20;63.70
17994;DHT22;9122;48.406;9.984;2023-07-08T02:29:31;21.20;63.50
17994;DHT22;9122;48.406;9.984;2023-07-08T02:32:16;21.20;62.80
17994;DHT22;9122;48.406;9.984;2023-07-08T02:35:02;21.10;62.80
17994;DHT22;9122;48.406;9.984;2023-07-08T02:37:48;21.10;63.50
17994;DHT22;9122;48.406;9.984;2023-07-08T02:40:32;21.10;65.00
17994;DHT22;9122;48.406;9.984;2023-07-08T02:43:16;21.10;66.00
17994;DHT22;9122;48.406;9.984;2023-07-08T02:46:00;21.10;66.50
17994;DHT22;9122;48.406;9.984;2023-07-08T02:48:45;21.10;67.10
17994;DHT22;9122;48.406;9.984;2023-07-08T02:51:30;21.10;69.20
17994;DHT22;9122;48.406;9.984;2023-07-08T02:54:14;21.10;69.80
17994;DHT22;9122;48.406;9.984;2023-07-08T02:56:58;21.10;69.90
17994;DHT22;9122;48.406;9.984;2023-07-08T02:59:44;21.00;69.60
17994;DHT22;9122;48.406;9.984;2023-07-08T03:02:28;21.00;71.20
17994;DHT22;9122;48.406;9.984;2023-07-08T03:05:13;21.00;71.40
17994;DHT22;9122;48.406;9.984;2023-07-08T03:07:57;20.90;71.90
17994;DHT22;9122;48.406;9.984;2023-07-08T03:10:47;20.90;73.20
17994;DHT22;9122;48.406;9.984;2023-07-08T03:13:32;20.80;74.20
17994;DHT22;9122;48.406;9.984;2023-07-08T03:16:17;20.80;74.70
17994;DHT22;9122;48.406;9.984;2023-07-08T03:19:02;20.80;75.50
17994;DHT22;9122;48.406;9.984;2023-07-08T03:21:48;20.70;76.50
17994;DHT22;9122;48.406;9.984;2023-07-08T03:24:33;20.70;77.30
17994;DHT22;9122;48.406;9.984;2023-07-08T03:27:18;20.70;78.30
17994;DHT22;9122;48.406;9.984;2023-07-08T03:30:02;20.70;79.40
17994;DHT22;9122;48.406;9.984;2023-07-08T03:32:49;20.60;79.60
17994;DHT22;9122;48.406;9.984;2023-07-08T03:35:34;20.60;81.50
17994;DHT22;9122;48.406;9.984;2023-07-08T03:38:18;20.60;82.20
17994;DHT22;9122;48.406;9.984;2023-07-08T03:41:05;20.60;82.70
17994;DHT22;9122;48.406;9.984;2023-07-08T03:43:49;20.60;83.10
17994;DHT22;9122;48.406;9.984;2023-07-08T03:46:37;20.50;83.20
17994;DHT22;9122;48.406;9.984;2023-07-08T03:49:23;20.50;83.80
17994;DHT22;9122;48.406;9.984;2023-07-08T03:52:13;20.50;85.20
17994;DHT22;9122;48.406;9.984;2023-07-08T03:54:59;20.50;86.50
17994;DHT22;9122;48.406;9.984;2023-07-08T03:57:46;20.50;87.20
17994;DHT22;9122;48.406;9.984;2023-07-08T04:00:36;20.50;87.50
17994;DHT22;9122;48.406;9.984;2023-07-08T04:03:24;20.40;87.70
17994;DHT22;9122;48.406;9.984;2023-07-08T04:06:08;20.40;88.10
17994;DHT22;9122;48.406;9.984;2023-07-08T04:08:52;20.40;88.60
17994;DHT22;9122;48.406;9.984;2023-07-08T04:11:37;20.30;89.10
17994;DHT22;9122;48.406;9.984;2023-07-08T04:14:21;20.30;89.50
17994;DHT22;9122;48.406;9.984;2023-07-08T04:17:07;20.30;90.00
17994;DHT22;9122;48.406;9.984;2023-07-08T04:19:51;20.20;89.70
17994;DHT22;9122;48.406;9.984;2023-07-08T04:22:36;20.20;90.10
17994;DHT22;9122;48.406;9.984;2023-07-08T04:25:21;20.20;90.50
17994;DHT22;9122;48.406;9.984;2023-07-08T04:28:05;20.20;90.80
17994;DHT22;9122;48.406;9.984;2023-07-08T04:30:50;20.10;91.00
17994;DHT22;9122;48.406;9.984;2023-07-08T04:33:34;20.10;91.30
17994;DHT22;9122;48.406;9.984;2023-07-08T04:36:18;20.10;91.60
17994;DHT22;9122;48.406;9.984;2023-07-08T04:39:07;20.10;91.50
17994;DHT22;9122;48.406;9.984;2023-07-08T04:41:52;20.10;91.50
17994;DHT22;9122;48.406;9.984;2023-07-08T04:44:46;20.00;91.70
17994;DHT22;9122;48.406;9.984;2023-07-08T04:47:33;20.00;91.50
17994;DHT22;9122;48.406;9.984;2023-07-08T04:50:18;20.00;91.70
17994;DHT22;9122;48.406;9.984;2023-07-08T04:53:02;20.00;92.20
17994;DHT22;9122;48.406;9.984;2023-07-08T04:55:51;20.00;92.40
17994;DHT22;9122;48.406;9.984;2023-07-08T04:58:36;20.00;92.30
17994;DHT22;9122;48.406;9.984;2023-07-08T05:01:20;20.00;91.90
17994;DHT22;9122;48.406;9.984;2023-07-08T05:04:06;20.00;91.40
17994;DHT22;9122;48.406;9.984;2023-07-08T05:06:51;20.00;90.50
17994;DHT22;9122;48.406;9.984;2023-07-08T05:09:36;20.00;90.60
17994;DHT22;9122;48.406;9.984;2023-07-08T05:12:20;19.90;90.50
17994;DHT22;9122;48.406;9.984;2023-07-08T05:15:05;19.90;89.10
17994;DHT22;9122;48.406;9.984;2023-07-08T05:17:50;19.90;86.70
17994;DHT22;9122;48.406;9.984;2023-07-08T05:20:35;20.00;90.20
17994;DHT22;9122;48.406;9.984;2023-07-08T05:23:21;20.00;90.90
17994;DHT22;9122;48.406;9.984;2023-07-08T05:26:06;20.00;90.90
17994;DHT22;9122;48.406;9.984;2023-07-08T05:28:51;20.00;91.00
17994;DHT22;9122;48.406;9.984;2023-07-08T05:31:35;20.00;90.90
17994;DHT22;9122;48.406;9.984;2023-07-08T05:34:20;20.00;90.70
17994;DHT22;9122;48.406;9.984;2023-07-08T05:37:04;20.00;90.90
17994;DHT22;9122;48.406;9.984;2023-07-08T05:39:48;20.00;90.60
17994;DHT22;9122;48.406;9.984;2023-07-08T05:42:33;20.00;90.50
17994;DHT22;9122;48.406;9.984;2023-07-08T05:45:18;20.00;90.20
17994;DHT22;9122;48.406;9.984;2023-07-08T05:48:02;20.00;89.90
17994;DHT22;9122;48.406;9.984;2023-07-08T05:50:47;20.10;89.70
17994;DHT22;9122;48.406;9.984;2023-07-08T05:53:36;20.10;89.80
17994;DHT22;9122;48.406;9.984;2023-07-08T05:56:21;20.10;89.90
17994;DHT22;9122;48.406;9.984;2023-07-08T05:59:05;20.10;88.80
17994;DHT22;9122;48.406;9.984;2023-07-08T06:01:50;20.10;89.40
17994;DHT22;9122;48.406;9.984;2023-07-08T06:04:35;20.10;90.00
17994;DHT22;9122;48.406;9.984;2023-07-08T06:07:19;20.20;89.90
17994;DHT22;9122;48.406;9.984;2023-07-08T06:10:04;20.20;90.00
17994;DHT22;9122;48.406;9.984;2023-07-08T06:12:49;20.20;90.30
17994;DHT22;9122;48.406;9.984;2023-07-08T06:15:34;20.20;90.30
17994;DHT22;9122;48.406;9.984;2023-07-08T06:18:18;20.30;90.50
17994;DHT22;9122;48.406;9.984;2023-07-08T06:21:03;20.30;90.10
17994;DHT22;9122;48.406;9.984;2023-07-08T06:23:47;20.30;90.00
17994;DHT22;9122;48.406;9.984;2023-07-08T06:26:31;20.30;90.10
17994;DHT22;9122;48.406;9.984;2023-07-08T06:29:16;20.30;90.10
17994;DHT22;9122;48.406;9.984;2023-07-08T06:32:01;20.40;89.90
17994;DHT22;9122;48.406;9.984;2023-07-08T06:34:46;20.40;89.90
17994;DHT22;9122;48.406;9.984;2023-07-08T06:37:30;20.40;90.00
17994;DHT22;9122;48.406;9.984;2023-07-08T06:40:15;20.40;90.00
17994;DHT22;9122;48.406;9.984;2023-07-08T06:43:03;20.50;90.20
17994;DHT22;9122;48.406;9.984;2023-07-08T06:45:47;20.40;90.10
17994;DHT22;9122;48.406;9.984;2023-07-08T06:48:32;20.50;90.30
17994;DHT22;9122;48.406;9.984;2023-07-08T06:51:16;20.40;90.70
17994;DHT22;9122;48.406;9.984;2023-07-08T06:54:01;20.50;90.90
17994;DHT22;9122;48.406;9.984;2023-07-08T06:56:48;20.50;91.20
17994;DHT22;9122;48.406;9.984;2023-07-08T06:59:33;20.50;91.00
17994;DHT22;9122;48.406;9.984;2023-07-08T07:02:19;20.50;91.10
17994;DHT22;9122;48.406;9.984;2023-07-08T07:05:05;20.50;91.20
17994;DHT22;9122;48.406;9.984;2023-07-08T07:07:49;20.60;91.10
17994;DHT22;9122;48.406;9.984;2023-07-08T07:10:34;20.50;91.10
17994;DHT22;9122;48.406;9.984;2023-07-08T07:13:22;20.60;91.10
17994;DHT22;9122;48.406;9.984;2023-07-08T07:16:06;20.60;91.00
17994;DHT22;9122;48.406;9.984;2023-07-08T07:18:51;20.60;90.90
17994;DHT22;9122;48.406;9.984;2023-07-08T07:21:36;20.60;90.90
17994;DHT22;9122;48.406;9.984;2023-07-08T07:24:23;20.70;91.00
17994;DHT22;9122;48.406;9.984;2023-07-08T07:27:10;20.70;90.60
17994;DHT22;9122;48.406;9.984;2023-07-08T07:29:54;20.70;90.30
17994;DHT22;9122;48.406;9.984;2023-07-08T07:32:39;20.80;90.40
17994;DHT22;9122;48.406;9.984;2023-07-08T07:35:23;20.80;90.00
17994;DHT22;9122;48.406;9.984;2023-07-08T07:38:08;20.80;89.80
17994;DHT22;9122;48.406;9.984;2023-07-08T07:40:58;20.80;89.70
17994;DHT22;9122;48.406;9.984;2023-07-08T07:43:44;20.90;88.80
17994;DHT22;9122;48.406;9.984;2023-07-08T07:46:29;20.90;88.20
17994;DHT22;9122;48.406;9.984;2023-07-08T07:49:13;20.90;87.80
17994;DHT22;9122;48.406;9.984;2023-07-08T07:51:58;20.90;87.30
17994;DHT22;9122;48.406;9.984;2023-07-08T07:54:43;21.00;87.60
17994;DHT22;9122;48.406;9.984;2023-07-08T07:57:28;21.00;86.50
17994;DHT22;9122;48.406;9.984;2023-07-08T08:00:13;21.30;86.70
17994;DHT22;9122;48.406;9.984;2023-07-08T08:02:58;21.10;86.70
17994;DHT22;9122;48.406;9.984;2023-07-08T08:05:43;21.10;86.70
17994;DHT22;9122;48.406;9.984;2023-07-08T08:08:27;21.20;87.00
17994;DHT22;9122;48.406;9.984;2023-07-08T08:11:11;21.20;87.70
17994;DHT22;9122;48.406;9.984;2023-07-08T08:13:56;21.30;86.70
17994;DHT22;9122;48.406;9.984;2023-07-08T08:16:41;21.30;86.70
17994;DHT22;9122;48.406;9.984;2023-07-08T08:19:25;21.40;87.00
17994;DHT22;9122;48.406;9.984;2023-07-08T08:22:10;21.40;84.80
17994;DHT22;9122;48.406;9.984;2023-07-08T08:24:54;21.50;83.40
17994;DHT22;9122;48.406;9.984;2023-07-08T08:27:38;21.50;83.30
17994;DHT22;9122;48.406;9.984;2023-07-08T08:30:23;21.50;83.00
17994;DHT22;9122;48.406;9.984;2023-07-08T08:33:08;21.60;83.10
17994;DHT22;9122;48.406;9.984;2023-07-08T08:35:52;21.60;83.00
17994;DHT22;9122;48.406;9.984;2023-07-08T08:38:37;21.70;82.50
17994;DHT22;9122;48.406;9.984;2023-07-08T08:41:33;21.70;82.40
17994;DHT22;9122;48.406;9.984;2023-07-08T08:44:26;21.70;81.70
17994;DHT22;9122;48.406;9.984;2023-07-08T08:47:38;21.80;81.30
17994;DHT22;9122;48.406;9.984;2023-07-08T08:50:28;21.80;81.60
17994;DHT22;9122;48.406;9.984;2023-07-08T08:53:14;21.90;81.30
17994;DHT22;9122;48.406;9.984;2023-07-08T08:56:09;22.00;80.90
17994;DHT22;9122;48.406;9.984;2023-07-08T09:01:56;22.20;81.20
17994;DHT22;9122;48.406;9.984;2023-07-08T09:04:41;22.30;81.40
17994;DHT22;9122;48.406;9.984;2023-07-08T09:07:27;22.40;81.20
17994;DHT22;9122;48.406;9.984;2023-07-08T09:13:57;22.60;81.00
17994;DHT22;9122;48.406;9.984;2023-07-08T09:16:56;22.60;80.50
17994;DHT22;9122;48.406;9.984;2023-07-08T09:23:10;22.70;80.40
17994;DHT22;9122;48.406;9.984;2023-07-08T09:25:59;22.70;80.60
17994;DHT22;9122;48.406;9.984;2023-07-08T09:28:47;22.80;81.50
17994;DHT22;9122;48.406;9.984;2023-07-08T09:31:32;22.80;81.80
17994;DHT22;9122;48.406;9.984;2023-07-08T09:34:22;22.80;83.20
17994;DHT22;9122;48.406;9.984;2023-07-08T09:37:31;22.80;84.00
17994;DHT22;9122;48.406;9.984;2023-07-08T09:43:16;22.80;82.70
17994;DHT22;9122;48.406;9.984;2023-07-08T09:46:04;22.80;82.60
17994;DHT22;9122;48.406;9.984;2023-07-08T09:48:55;22.80;82.60
17994;DHT22;9122;48.406;9.984;2023-07-08T09:51:40;22.80;82.70
17994;DHT22;9122;48.406;9.984;2023-07-08T09:54:25;22.80;82.90
17994;DHT22;9122;48.406;9.984;2023-07-08T09:57:24;22.80;82.60
17994;DHT22;9122;48.406;9.984;2023-07-08T10:00:13;22.80;81.80
17994;DHT22;9122;48.406;9.984;2023-07-08T10:03:00;22.80;81.20
17994;DHT22;9122;48.406;9.984;2023-07-08T10:05:48;22.90;80.80
17994;DHT22;9122;48.406;9.984;2023-07-08T10:08:41;22.90;79.60
17994;DHT22;9122;48.406;9.984;2023-07-08T10:11:39;22.90;79.10
17994;DHT22;9122;48.406;9.984;2023-07-08T10:14:34;22.90;79.00
17994;DHT22;9122;48.406;9.984;2023-07-08T10:17:21;23.00;78.80
17994;DHT22;9122;48.406;9.984;2023-07-08T10:20:11;23.10;77.80
17994;DHT22;9122;48.406;9.984;2023-07-08T10:23:12;23.20;77.10
17994;DHT22;9122;48.406;9.984;2023-07-08T10:26:12;23.40;75.20
17994;DHT22;9122;48.406;9.984;2023-07-08T10:29:23;23.50;72.90
17994;DHT22;9122;48.406;9.984;2023-07-08T10:32:32;23.70;72.40
17994;DHT22;9122;48.406;9.984;2023-07-08T10:41:26;24.20;71.60
17994;DHT22;9122;48.406;9.984;2023-07-08T10:44:27;24.40;71.40
17994;DHT22;9122;48.406;9.984;2023-07-08T11:03:03;25.10;67.40
17994;DHT22;9122;48.406;9.984;2023-07-08T11:06:10;25.20;67.00
17994;DHT22;9122;48.406;9.984;2023-07-08T11:08:57;25.30;66.60
17994;DHT22;9122;48.406;9.984;2023-07-08T11:11:53;25.40;66.70
17994;DHT22;9122;48.406;9.984;2023-07-08T11:15:12;25.50;67.60
17994;DHT22;9122;48.406;9.984;2023-07-08T11:18:17;25.60;67.70
17994;DHT22;9122;48.406;9.984;2023-07-08T11:27:02;25.80;66.10
17994;DHT22;9122;48.406;9.984;2023-07-08T11:32:39;26.00;65.70
17994;DHT22;9122;48.406;9.984;2023-07-08T11:35:52;26.10;65.60
17994;DHT22;9122;48.406;9.984;2023-07-08T11:38:53;26.20;64.40
17994;DHT22;9122;48.406;9.984;2023-07-08T11:41:38;26.20;63.90
17994;DHT22;9122;48.406;9.984;2023-07-08T11:44:22;26.40;63.80
17994;DHT22;9122;48.406;9.984;2023-07-08T11:47:16;26.40;63.70
17994;DHT22;9122;48.406;9.984;2023-07-08T11:50:02;26.50;62.60
17994;DHT22;9122;48.406;9.984;2023-07-08T11:53:02;26.60;62.30
17994;DHT22;9122;48.406;9.984;2023-07-08T11:59:04;26.80;60.70
17994;DHT22;9122;48.406;9.984;2023-07-08T12:02:00;26.80;61.00
17994;DHT22;9122;48.406;9.984;2023-07-08T12:05:00;26.90;61.40
17994;DHT22;9122;48.406;9.984;2023-07-08T12:07:47;27.00;61.00
17994;DHT22;9122;48.406;9.984;2023-07-08T12:10:37;27.10;61.10
17994;DHT22;9122;48.406;9.984;2023-07-08T12:13:25;27.10;61.20
17994;DHT22;9122;48.406;9.984;2023-07-08T12:16:12;27.10;61.30
17994;DHT22;9122;48.406;9.984;2023-07-08T12:19:01;27.20;61.70
17994;DHT22;9122;48.406;9.984;2023-07-08T12:21:49;27.30;61.40
17994;DHT22;9122;48.406;9.984;2023-07-08T12:24:34;27.40;61.40
17994;DHT22;9122;48.406;9.984;2023-07-08T12:27:21;27.40;60.30
17994;DHT22;9122;48.406;9.984;2023-07-08T12:30:05;27.50;60.10
17994;DHT22;9122;48.406;9.984;2023-07-08T12:32:51;27.60;60.20
17994;DHT22;9122;48.406;9.984;2023-07-08T12:35:38;27.60;59.50
17994;DHT22;9122;48.406;9.984;2023-07-08T12:38:29;27.70;59.30
17994;DHT22;9122;48.406;9.984;2023-07-08T12:41:18;27.70;58.70
17994;DHT22;9122;48.406;9.984;2023-07-08T12:44:14;27.80;58.90
17994;DHT22;9122;48.406;9.984;2023-07-08T12:47:02;27.80;58.50
17994;DHT22;9122;48.406;9.984;2023-07-08T12:49:47;27.80;57.70
17994;DHT22;9122;48.406;9.984;2023-07-08T12:52:32;27.90;57.70
17994;DHT22;9122;48.406;9.984;2023-07-08T12:55:17;27.90;57.60
17994;DHT22;9122;48.406;9.984;2023-07-08T12:58:01;27.90;57.40
17994;DHT22;9122;48.406;9.984;2023-07-08T13:00:46;27.90;57.30
17994;DHT22;9122;48.406;9.984;2023-07-08T13:03:35;27.90;57.30
17994;DHT22;9122;48.406;9.984;2023-07-08T13:06:23;28.00;56.50
17994;DHT22;9122;48.406;9.984;2023-07-08T13:09:34;28.00;57.40
17994;DHT22;9122;48.406;9.984;2023-07-08T13:12:21;28.00;57.70
17994;DHT22;9122;48.406;9.984;2023-07-08T13:15:16;28.00;57.90
17994;DHT22;9122;48.406;9.984;2023-07-08T13:18:03;28.10;56.00
17994;DHT22;9122;48.406;9.984;2023-07-08T13:20:53;28.10;56.50
17994;DHT22;9122;48.406;9.984;2023-07-08T13:23:38;28.10;57.10
17994;DHT22;9122;48.406;9.984;2023-07-08T13:26:25;28.10;57.30
17994;DHT22;9122;48.406;9.984;2023-07-08T13:29:14;28.10;57.40
17994;DHT22;9122;48.406;9.984;2023-07-08T13:32:05;28.10;56.80
17994;DHT22;9122;48.406;9.984;2023-07-08T13:34:49;28.10;56.00
17994;DHT22;9122;48.406;9.984;2023-07-08T13:37:35;28.10;56.00
17994;DHT22;9122;48.406;9.984;2023-07-08T13:40:20;28.10;56.20
17994;DHT22;9122;48.406;9.984;2023-07-08T13:43:26;28.10;56.00
17994;DHT22;9122;48.406;9.984;2023-07-08T13:49:25;28.10;54.60
17994;DHT22;9122;48.406;9.984;2023-07-08T13:55:01;28.10;52.90
17994;DHT22;9122;48.406;9.984;2023-07-08T13:57:57;28.10;53.10
17994;DHT22;9122;48.406;9.984;2023-07-08T14:00:42;28.10;53.70
17994;DHT22;9122;48.406;9.984;2023-07-08T14:03:27;28.20;54.00
17994;DHT22;9122;48.406;9.984;2023-07-08T14:06:24;28.20;53.90
17994;DHT22;9122;48.406;9.984;2023-07-08T14:09:13;28.20;53.80
17994;DHT22;9122;48.406;9.984;2023-07-08T14:11:57;28.10;52.90
17994;DHT22;9122;48.406;9.984;2023-07-08T14:14:45;28.20;53.40
17994;DHT22;9122;48.406;9.984;2023-07-08T14:17:29;28.20;53.80
17994;DHT22;9122;48.406;9.984;2023-07-08T14:20:16;28.20;53.90
17994;DHT22;9122;48.406;9.984;2023-07-08T14:23:02;28.20;53.90
17994;DHT22;9122;48.406;9.984;2023-07-08T14:25:47;28.30;54.10
17994;DHT22;9122;48.406;9.984;2023-07-08T14:28:31;28.30;53.90
17994;DHT22;9122;48.406;9.984;2023-07-08T14:31:21;28.30;54.10
17994;DHT22;9122;48.406;9.984;2023-07-08T14:34:08;28.30;54.00
17994;DHT22;9122;48.406;9.984;2023-07-08T14:36:53;28.30;52.30
17994;DHT22;9122;48.406;9.984;2023-07-08T14:39:38;28.40;53.00
17994;DHT22;9122;48.406;9.984;2023-07-08T14:42:23;28.30;51.50
17994;DHT22;9122;48.406;9.984;2023-07-08T14:45:08;28.40;50.90
17994;DHT22;9122;48.406;9.984;2023-07-08T14:48:00;28.40;50.90
17994;DHT22;9122;48.406;9.984;2023-07-08T14:50:45;28.40;50.50
17994;DHT22;9122;48.406;9.984;2023-07-08T14:53:30;28.40;50.00
17994;DHT22;9122;48.406;9.984;2023-07-08T14:56:16;28.40;50.20
17994;DHT22;9122;48.406;9.984;2023-07-08T14:59:01;28.40;49.90
17994;DHT22;9122;48.406;9.984;2023-07-08T15:01:47;28.40;50.10
17994;DHT22;9122;48.406;9.984;2023-07-08T15:04:32;28.40;51.00
17994;DHT22;9122;48.406;9.984;2023-07-08T15:07:16;28.40;50.90
17994;DHT22;9122;48.406;9.984;2023-07-08T15:10:00;28.40;49.10
17994;DHT22;9122;48.406;9.984;2023-07-08T15:12:46;28.40;50.10
17994;DHT22;9122;48.406;9.984;2023-07-08T15:15:33;28.40;49.00
17994;DHT22;9122;48.406;9.984;2023-07-08T15:18:21;28.40;48.40
17994;DHT22;9122;48.406;9.984;2023-07-08T15:21:15;28.40;48.00
17994;DHT22;9122;48.406;9.984;2023-07-08T15:24:00;28.40;49.40
17994;DHT22;9122;48.406;9.984;2023-07-08T15:26:46;28.40;46.80
17994;DHT22;9122;48.406;9.984;2023-07-08T15:29:34;28.40;47.50
17994;DHT22;9122;48.406;9.984;2023-07-08T15:32:19;28.40;48.80
17994;DHT22;9122;48.406;9.984;2023-07-08T15:35:15;28.40;48.40
17994;DHT22;9122;48.406;9.984;2023-07-08T15:38:00;28.40;48.40
17994;DHT22;9122;48.406;9.984;2023-07-08T15:40:47;28.40;47.70
17994;DHT22;9122;48.406;9.984;2023-07-08T15:43:31;28.40;48.20
17994;DHT22;9122;48.406;9.984;2023-07-08T15:46:17;28.40;47.90
17994;DHT22;9122;48.406;9.984;2023-07-08T15:49:16;28.40;47.70
17994;DHT22;9122;48.406;9.984;2023-07-08T15:52:00;28.40;48.20
17994;DHT22;9122;48.406;9.984;2023-07-08T15:54:45;28.40;48.70
17994;DHT22;9122;48.406;9.984;2023-07-08T15:57:33;28.50;48.90
17994;DHT22;9122;48.406;9.984;2023-07-08T16:00:20;28.50;48.50
17994;DHT22;9122;48.406;9.984;2023-07-08T16:03:30;28.50;48.60
17994;DHT22;9122;48.406;9.984;2023-07-08T16:06:16;28.50;49.80
17994;DHT22;9122;48.406;9.984;2023-07-08T16:09:01;28.50;50.10
17994;DHT22;9122;48.406;9.984;2023-07-08T16:11:45;28.50;50.10
17994;DHT22;9122;48.406;9.984;2023-07-08T16:14:29;28.40;49.80
17994;DHT22;9122;48.406;9.984;2023-07-08T16:17:16;28.40;49.70
17994;DHT22;9122;48.406;9.984;2023-07-08T16:20:00;28.50;49.70
17994;DHT22;9122;48.406;9.984;2023-07-08T16:22:45;28.50;49.80
17994;DHT22;9122;48.406;9.984;2023-07-08T16:25:36;28.40;49.60
17994;DHT22;9122;48.406;9.984;2023-07-08T16:34:00;28.50;49.00
17994;DHT22;9122;48.406;9.984;2023-07-08T16:36:44;28.50;49.50
17994;DHT22;9122;48.406;9.984;2023-07-08T16:39:29;28.50;49.40
17994;DHT22;9122;48.406;9.984;2023-07-08T16:42:15;28.50;49.80
17994;DHT22;9122;48.406;9.984;2023-07-08T16:44:59;28.50;50.40
17994;DHT22;9122;48.406;9.984;2023-07-08T16:47:45;28.40;50.70
17994;DHT22;9122;48.406;9.984;2023-07-08T16:50:30;28.40;50.80
17994;DHT22;9122;48.406;9.984;2023-07-08T16:53:14;28.40;50.80
17994;DHT22;9122;48.406;9.984;2023-07-08T16:55:59;28.40;51.10
17994;DHT22;9122;48.406;9.984;2023-07-08T16:58:43;28.40;51.10
17994;DHT22;9122;48.406;9.984;2023-07-08T17:01:28;28.40;51.20
17994;DHT22;9122;48.406;9.984;2023-07-08T17:04:13;28.40;50.20
17994;DHT22;9122;48.406;9.984;2023-07-08T17:07:00;28.40;50.10
17994;DHT22;9122;48.406;9.984;2023-07-08T17:09:44;28.40;50.20
17994;DHT22;9122;48.406;9.984;2023-07-08T17:12:29;28.30;49.80
17994;DHT22;9122;48.406;9.984;2023-07-08T17:15:15;28.40;49.10
17994;DHT22;9122;48.406;9.984;2023-07-08T17:18:01;28.40;49.70
17994;DHT22;9122;48.406;9.984;2023-07-08T17:20:49;28.50;50.60
17994;DHT22;9122;48.406;9.984;2023-07-08T17:23:33;28.60;50.40
17994;DHT22;9122;48.406;9.984;2023-07-08T17:26:20;28.60;49.10
17994;DHT22;9122;48.406;9.984;2023-07-08T17:29:04;28.60;50.00
17994;DHT22;9122;48.406;9.984;2023-07-08T17:31:49;28.50;49.90
17994;DHT22;9122;48.406;9.984;2023-07-08T17:34:35;28.50;50.00
17994;DHT22;9122;48.406;9.984;2023-07-08T17:37:20;28.50;50.50
17994;DHT22;9122;48.406;9.984;2023-07-08T17:40:11;28.50;49.90
17994;DHT22;9122;48.406;9.984;2023-07-08T17:42:56;28.40;49.90
17994;DHT22;9122;48.406;9.984;2023-07-08T17:45:43;28.40;50.20
17994;DHT22;9122;48.406;9.984;2023-07-08T17:48:29;28.40;50.00
17994;DHT22;9122;48.406;9.984;2023-07-08T17:51:15;28.40;50.00
17994;DHT22;9122;48.406;9.984;2023-07-08T17:54:00;28.40;49.70
17994;DHT22;9122;48.406;9.984;2023-07-08T17:56:47;28.40;49.60
17994;DHT22;9122;48.406;9.984;2023-07-08T17:59:34;28.30;49.00
17994;DHT22;9122;48.406;9.984;2023-07-08T18:02:19;28.30;49.00
17994;DHT22;9122;48.406;9.984;2023-07-08T18:05:04;28.30;49.20
17994;DHT22;9122;48.406;9.984;2023-07-08T18:07:50;28.30;49.40
17994;DHT22;9122;48.406;9.984;2023-07-08T18:10:37;28.30;49.30
17994;DHT22;9122;48.406;9.984;2023-07-08T18:13:23;28.30;49.40
17994;DHT22;9122;48.406;9.984;2023-07-08T18:16:16;28.30;49.80
17994;DHT22;9122;48.406;9.984;2023-07-08T18:19:01;28.30;49.40
17994;DHT22;9122;48.406;9.984;2023-07-08T18:21:46;28.30;49.60
17994;DHT22;9122;48.406;9.984;2023-07-08T18:24:31;28.30;49.40
17994;DHT22;9122;48.406;9.984;2023-07-08T18:27:16;28.30;50.10
17994;DHT22;9122;48.406;9.984;2023-07-08T18:30:00;28.20;50.30
17994;DHT22;9122;48.406;9.984;2023-07-08T18:32:49;28.20;50.60
17994;DHT22;9122;48.406;9.984;2023-07-08T18:35:34;28.20;51.00
17994;DHT22;9122;48.406;9.984;2023-07-08T18:38:18;28.10;51.10
17994;DHT22;9122;48.406;9.984;2023-07-08T18:41:02;28.10;50.90
17994;DHT22;9122;48.406;9.984;2023-07-08T18:43:47;28.10;51.20
17994;DHT22;9122;48.406;9.984;2023-07-08T18:46:32;28.10;51.80
17994;DHT22;9122;48.406;9.984;2023-07-08T18:49:16;28.10;51.90
17994;DHT22;9122;48.406;9.984;2023-07-08T18:52:00;28.00;52.00
17994;DHT22;9122;48.406;9.984;2023-07-08T18:54:45;28.00;52.30
17994;DHT22;9122;48.406;9.984;2023-07-08T18:57:29;28.00;52.40
17994;DHT22;9122;48.406;9.984;2023-07-08T19:00:16;28.00;52.60
17994;DHT22;9122;48.406;9.984;2023-07-08T19:03:01;27.90;52.90